• Join FlightAware (Why Join?)
  • Login
  • US Flag 
03:26AM EDT


 

Airport Tracker/Info


-or-


 

Live Flight TrackerFlight Track Log ✈ CES2280 ✈ 06-Aug-2013 ✈ ZLGM / GOQ - ZLXN / XNN

Flight Track Log - Related Links

Times and Time Zones

All times are in EDT time to prevent confusion due to time zone crossing. See the CES2280 flight status page for this flight to view local times or setup timezone preferences in your user account.

Time Position Orientation Groundspeed Altitude Reporting Facility
EDT Latitude Longitude Course Direction KTS MPH feet Rate Location/Type
08:42AM 36.4813 96.8581 87° East  Level Estimated
08:43AM 36.4852 96.9878 88° East  Level Estimated
08:44AM 36.4890 97.1174 88° East  Level Estimated
08:45AM 36.4926 97.2471 88° East  Level Estimated
08:46AM 36.4960 97.3767 88° East  Level Estimated
08:47AM 36.4994 97.5064 88° East  Level Estimated
08:48AM 36.5026 97.6361 88° East  Level Estimated
08:49AM 36.5056 97.7658 88° East  Level Estimated
08:50AM 36.5085 97.8955 88° East  Level Estimated
08:51AM 36.5113 98.0252 88° East  Level Estimated
08:52AM 36.5139 98.1550 89° East  Level Estimated
08:53AM 36.5164 98.2847 89° East  Level Estimated
08:54AM 36.5188 98.4145 89° East  Level Estimated
08:55AM 36.5210 98.5442 89° East  Level Estimated
08:56AM 36.5230 98.6740 89° East  Level Estimated
08:57AM 36.5250 98.8037 89° East  Level Estimated
08:58AM 36.5268 98.9335 89° East  Level Estimated
08:59AM 36.5284 99.0633 89° East  Level Estimated
09:00AM 36.5299 99.1931 89° East  Level Estimated
09:01AM 36.5313 99.3229 89° East  Level Estimated
09:02AM 36.5325 99.4527 89° East  Level Estimated
09:03AM 36.5336 99.5825 89° East  Level Estimated
09:04AM 36.5345 99.7123 89° East  Level Estimated
09:05AM 36.5353 99.8421 90° East  Level Estimated
09:06AM 36.5360 99.9719 90° East  Level Estimated
09:07AM 36.5365 100.1017 90° East  Level Estimated
09:08AM 36.5369 100.2315 90° East  Level Estimated
09:09AM 36.5371 100.3613 90° East  Level Estimated
09:10AM 36.5372 100.4911 90° East  Level Estimated
09:11AM 36.5372 100.6210 90° East  Level Estimated
09:12AM 36.5370 100.7508 90° East  Level Estimated
09:13AM 36.5367 100.8806 90° East  Level Estimated
09:14AM 36.5362 101.0104 90° East  Level Estimated
09:15AM 36.5356 101.1402 90° East  Level Estimated
09:16AM 36.5349 101.2700 90° East  Level Estimated
09:17AM 36.5340 101.3998 90° East  Level Estimated
09:18AM 36.5329 101.5296 91° East  Level Estimated
09:19AM 36.5316 101.6810 91° East  Level Estimated
09:20AM 36.5300 101.8325 91° East  Level Estimated
09:21AM 36.5282 101.9839 91° East  Level Estimated
09:22AM 36.5275 102.0428 91° East  Level Estimated
09:23AM 36.5275 102.0428 270° West  Level Estimated
09:24AM 36.5275 102.0428 270° West  Level Estimated
09:25AM 36.5275 102.0428 270° West  Level Estimated
09:26AM 36.5275 102.0428 270° West  Level Estimated
09:27AM 36.5275 102.0428 270° West  Level Estimated
09:28AM 36.5275 102.0428 270° West  Level Estimated
09:29AM 36.5275 102.0428 270° West  Level Estimated
09:30AM 36.5275 102.0428 270° West  Level Estimated